Flight Track Log - Related Links

Times and Time Zones

All times are in EDT time to prevent confusion due to time zone crossing. See the RPA4907 flight status page for this flight to view local times or setup timezone preferences in your user account.

Time Position Orientation Groundspeed Altitude Reporting Facility
EDT Latitude Longitude Course Direction KTS MPH feet Rate Location/Type
Tue 02:46:17 PM 39.2000 -76.7167 38° Northeast 203 234 2,200  Level Potomac TRACON
Tue 02:47:18 PM 39.2500 -76.6667 38° Northeast 248 285 4,000 1,983 Climbing Potomac TRACON
Tue 02:48:18 PM 39.2333 -76.5833 104° East 249 287 6,200 2,150 Climbing Potomac TRACON
Tue 02:49:18 PM 39.2167 -76.5000 104° East 250 288 8,300 1,492 Climbing Potomac TRACON
Tue 02:51:19 PM 39.2167 -76.3000 90° East 297 342 10,700 895 Climbing Potomac TRACON
Tue 02:52:19 PM 39.2667 -76.2167 52° Northeast 320 368 11,000 87 Climbing Potomac TRACON
Tue 02:54:45 PM 39.4000 -75.9833 53° Northeast 332 382 11,000  Level Philadelphia TRACON
Tue 02:55:44 PM 39.4667 -75.8833 49° Northeast 335 386 11,000  Level Philadelphia TRACON
Tue 02:56:45 PM 39.5167 -75.7833 57° Northeast 343 395 11,000  Level Philadelphia TRACON
Tue 02:57:45 PM 39.5833 -75.7167 38° Northeast 336 387 11,000  Level Philadelphia TRACON
Tue 02:58:45 PM 39.6667 -75.6333 38° Northeast 335 386 11,000  Level Philadelphia TRACON
Tue 02:59:45 PM 39.7000 -75.5333 67° East 334 384 11,000 -500 Level Philadelphia TRACON
Tue 03:00:45 PM 39.7333 -75.4167 70° East 344 396 10,000 -500 Descending Philadelphia TRACON
Tue 03:01:45 PM 39.7667 -75.3000 70° East 335 386 10,000 -550 Level Philadelphia TRACON
Tue 03:02:45 PM 39.8000 -75.2000 67° East 302 348 8,900 -1,000 Descending Philadelphia TRACON
Tue 03:03:45 PM 39.8333 -75.0833 70° East 295 339 8,000 -429 Descending Philadelphia TRACON
Tue 03:04:51 PM 39.8667 -74.9833 66° East 287 330 8,000 -227 Level Philadelphia TRACON
Tue 03:05:57 PM 39.9167 -74.9000 52° Northeast 290 334 7,500 -423 Descending Philadelphia TRACON
Tue 03:07:13 PM 39.9833 -74.8167 44° Northeast 282 325 7,000 -221 Descending New York TRACON
Tue 03:08:13 PM 40.0333 -74.7333 52° Northeast 284 327 7,000  Level New York TRACON
Tue 03:09:13 PM 40.1000 -74.6500 44° Northeast 284 327 7,000  Level New York TRACON
Tue 03:10:19 PM 40.1500 -74.5667 52° Northeast 286 329 7,000  Level New York TRACON
Tue 03:11:13 PM 40.2000 -74.5000 46° Northeast 284 327 7,000 -450 Level New York TRACON
Tue 03:12:19 PM 40.2667 -74.4667 21° North 277 319 6,100 -700 Descending New York TRACON
Tue 03:13:13 PM 40.3333 -74.4667 360° North 263 303 5,600 -555 Descending New York TRACON
Tue 03:14:18 PM 40.4167 -74.5000 343° North 257 296 5,000 -286 Descending New York TRACON
Tue 03:15:19 PM 40.4833 -74.5167 349° North 265 305 5,000  Level New York TRACON
Tue 03:16:19 PM 40.5500 -74.5167 360° North 270 311 5,000  Level New York TRACON
Tue 03:17:19 PM 40.6333 -74.5167 360° North 263 303 5,000  Level New York TRACON
Tue 03:18:19 PM 40.7000 -74.5167 360° North 262 302 5,000  Level New York TRACON
Tue 03:19:19 PM 40.7667 -74.4833 21° North 265 305 5,000  Level New York TRACON
Tue 03:20:19 PM 40.8333 -74.4333 30° Northeast 269 310 5,000  Level New York TRACON
Tue 03:21:13 PM 40.9000 -74.4000 21° North 271 312 5,000  Level New York TRACON
Tue 03:22:19 PM 40.9667 -74.3500 30° Northeast 276 318 5,000  Level New York TRACON
Tue 03:23:19 PM 41.0333 -74.3000 29° Northeast 284 327 5,000 -200 Level New York TRACON
Tue 03:24:19 PM 41.0000 -74.2000 114° Southeast 275 316 4,600 -500 Descending New York TRACON
Tue 03:25:19 PM 40.9500 -74.1500 143° Southeast 256 295 4,000 -600 Descending New York TRACON
Tue 03:26:19 PM 40.8833 -74.1000 150° Southeast 253 291 3,400 -600 Descending New York TRACON

Login

Don't have an account? Register now (free) for customized features, flight alerts, and more!